sensor_id;sensor_type;location;lat;lon;timestamp;P1;durP1;ratioP1;P2;durP2;ratioP2
37945;SDS011;23769;52.478;13.448;2023-10-13T00:02:10;9.80;;;3.08;;
37945;SDS011;23769;52.478;13.448;2023-10-13T00:04:39;6.78;;;2.78;;
37945;SDS011;23769;52.478;13.448;2023-10-13T00:07:08;7.05;;;2.20;;
37945;SDS011;23769;52.478;13.448;2023-10-13T00:09:36;9.45;;;3.20;;
37945;SDS011;23769;52.478;13.448;2023-10-13T00:12:04;7.18;;;2.58;;
37945;SDS011;23769;52.478;13.448;2023-10-13T00:14:35;6.80;;;2.90;;
37945;SDS011;23769;52.478;13.448;2023-10-13T00:17:05;9.55;;;2.65;;
37945;SDS011;23769;52.478;13.448;2023-10-13T00:19:40;8.43;;;2.80;;
37945;SDS011;23769;52.478;13.448;2023-10-13T00:22:11;5.18;;;2.60;;
37945;SDS011;23769;52.478;13.448;2023-10-13T00:24:41;7.35;;;2.50;;
37945;SDS011;23769;52.478;13.448;2023-10-13T00:27:11;6.13;;;2.58;;
37945;SDS011;23769;52.478;13.448;2023-10-13T00:29:54;6.15;;;2.85;;
37945;SDS011;23769;52.478;13.448;2023-10-13T00:32:43;6.82;;;2.78;;
37945;SDS011;23769;52.478;13.448;2023-10-13T00:35:12;8.07;;;3.45;;
37945;SDS011;23769;52.478;13.448;2023-10-13T00:37:50;4.25;;;2.78;;
37945;SDS011;23769;52.478;13.448;2023-10-13T00:40:18;7.85;;;3.72;;
37945;SDS011;23769;52.478;13.448;2023-10-13T00:43:06;6.32;;;3.15;;
37945;SDS011;23769;52.478;13.448;2023-10-13T00:45:49;7.03;;;2.97;;
37945;SDS011;23769;52.478;13.448;2023-10-13T00:48:24;5.45;;;2.63;;
37945;SDS011;23769;52.478;13.448;2023-10-13T00:50:55;5.95;;;3.42;;
37945;SDS011;23769;52.478;13.448;2023-10-13T00:53:25;8.88;;;3.63;;
37945;SDS011;23769;52.478;13.448;2023-10-13T00:55:54;5.68;;;3.65;;
37945;SDS011;23769;52.478;13.448;2023-10-13T00:58:22;5.47;;;3.17;;
37945;SDS011;23769;52.478;13.448;2023-10-13T01:00:50;5.28;;;2.90;;
37945;SDS011;23769;52.478;13.448;2023-10-13T01:03:34;7.72;;;3.00;;
37945;SDS011;23769;52.478;13.448;2023-10-13T01:06:01;6.65;;;3.40;;
37945;SDS011;23769;52.478;13.448;2023-10-13T01:08:32;6.03;;;3.45;;
37945;SDS011;23769;52.478;13.448;2023-10-13T01:11:03;8.02;;;4.60;;
37945;SDS011;23769;52.478;13.448;2023-10-13T01:13:32;7.00;;;3.33;;
37945;SDS011;23769;52.478;13.448;2023-10-13T01:16:01;6.22;;;2.90;;
37945;SDS011;23769;52.478;13.448;2023-10-13T01:18:29;6.32;;;2.47;;
37945;SDS011;23769;52.478;13.448;2023-10-13T01:20:58;5.93;;;2.85;;
37945;SDS011;23769;52.478;13.448;2023-10-13T01:23:27;7.32;;;3.47;;
37945;SDS011;23769;52.478;13.448;2023-10-13T01:26:03;10.25;;;5.25;;
37945;SDS011;23769;52.478;13.448;2023-10-13T01:28:31;9.88;;;4.97;;
37945;SDS011;23769;52.478;13.448;2023-10-13T01:31:09;7.88;;;4.93;;
37945;SDS011;23769;52.478;13.448;2023-10-13T01:33:37;12.88;;;7.32;;
37945;SDS011;23769;52.478;13.448;2023-10-13T01:36:05;8.07;;;5.18;;
37945;SDS011;23769;52.478;13.448;2023-10-13T01:38:36;7.93;;;4.57;;
37945;SDS011;23769;52.478;13.448;2023-10-13T01:41:08;9.25;;;4.45;;
37945;SDS011;23769;52.478;13.448;2023-10-13T01:43:34;8.90;;;3.97;;
37945;SDS011;23769;52.478;13.448;2023-10-13T01:46:02;6.63;;;3.92;;
37945;SDS011;23769;52.478;13.448;2023-10-13T01:48:29;7.38;;;4.25;;
37945;SDS011;23769;52.478;13.448;2023-10-13T01:51:03;7.30;;;4.53;;
37945;SDS011;23769;52.478;13.448;2023-10-13T01:53:33;9.00;;;4.80;;
37945;SDS011;23769;52.478;13.448;2023-10-13T01:56:03;7.18;;;4.38;;
37945;SDS011;23769;52.478;13.448;2023-10-13T01:58:36;7.32;;;4.65;;
37945;SDS011;23769;52.478;13.448;2023-10-13T02:01:06;8.00;;;5.28;;
37945;SDS011;23769;52.478;13.448;2023-10-13T02:03:33;8.02;;;4.88;;
37945;SDS011;23769;52.478;13.448;2023-10-13T02:06:06;10.45;;;5.32;;
37945;SDS011;23769;52.478;13.448;2023-10-13T02:08:35;8.13;;;4.68;;
37945;SDS011;23769;52.478;13.448;2023-10-13T02:11:09;10.27;;;4.65;;
37945;SDS011;23769;52.478;13.448;2023-10-13T02:13:35;8.73;;;5.03;;
37945;SDS011;23769;52.478;13.448;2023-10-13T02:16:13;9.73;;;4.90;;
37945;SDS011;23769;52.478;13.448;2023-10-13T02:18:44;10.88;;;5.53;;
37945;SDS011;23769;52.478;13.448;2023-10-13T02:21:16;9.73;;;5.60;;
37945;SDS011;23769;52.478;13.448;2023-10-13T02:23:43;8.35;;;5.20;;
37945;SDS011;23769;52.478;13.448;2023-10-13T02:26:12;11.38;;;5.65;;
37945;SDS011;23769;52.478;13.448;2023-10-13T02:28:40;9.30;;;5.30;;
37945;SDS011;23769;52.478;13.448;2023-10-13T02:31:09;17.92;;;6.68;;
37945;SDS011;23769;52.478;13.448;2023-10-13T02:33:36;10.45;;;5.93;;
37945;SDS011;23769;52.478;13.448;2023-10-13T02:36:10;8.50;;;5.30;;
37945;SDS011;23769;52.478;13.448;2023-10-13T02:38:37;15.73;;;5.97;;
37945;SDS011;23769;52.478;13.448;2023-10-13T02:41:13;10.45;;;5.82;;
37945;SDS011;23769;52.478;13.448;2023-10-13T02:43:45;9.40;;;5.50;;
37945;SDS011;23769;52.478;13.448;2023-10-13T02:46:12;10.38;;;5.82;;
37945;SDS011;23769;52.478;13.448;2023-10-13T02:48:41;9.15;;;6.57;;
37945;SDS011;23769;52.478;13.448;2023-10-13T02:51:11;14.73;;;6.65;;
37945;SDS011;23769;52.478;13.448;2023-10-13T02:53:42;9.30;;;5.80;;
37945;SDS011;23769;52.478;13.448;2023-10-13T02:56:13;11.52;;;6.38;;
37945;SDS011;23769;52.478;13.448;2023-10-13T02:58:46;10.52;;;7.47;;
37945;SDS011;23769;52.478;13.448;2023-10-13T03:03:45;12.05;;;6.97;;
37945;SDS011;23769;52.478;13.448;2023-10-13T03:06:19;12.98;;;7.55;;
37945;SDS011;23769;52.478;13.448;2023-10-13T03:08:48;10.38;;;6.05;;
37945;SDS011;23769;52.478;13.448;2023-10-13T03:11:17;14.75;;;7.07;;
37945;SDS011;23769;52.478;13.448;2023-10-13T03:13:48;10.32;;;6.47;;
37945;SDS011;23769;52.478;13.448;2023-10-13T03:16:17;13.57;;;8.23;;
37945;SDS011;23769;52.478;13.448;2023-10-13T03:18:45;11.10;;;7.90;;
37945;SDS011;23769;52.478;13.448;2023-10-13T03:21:19;12.13;;;8.10;;
37945;SDS011;23769;52.478;13.448;2023-10-13T03:23:55;10.32;;;7.18;;
37945;SDS011;23769;52.478;13.448;2023-10-13T03:26:30;11.18;;;8.02;;
37945;SDS011;23769;52.478;13.448;2023-10-13T03:31:29;11.63;;;7.40;;
37945;SDS011;23769;52.478;13.448;2023-10-13T03:34:02;12.68;;;8.10;;
37945;SDS011;23769;52.478;13.448;2023-10-13T03:36:30;14.57;;;8.20;;
37945;SDS011;23769;52.478;13.448;2023-10-13T03:39:14;14.57;;;9.65;;
37945;SDS011;23769;52.478;13.448;2023-10-13T03:41:43;13.50;;;9.25;;
37945;SDS011;23769;52.478;13.448;2023-10-13T03:44:18;14.48;;;8.35;;
37945;SDS011;23769;52.478;13.448;2023-10-13T03:46:46;14.95;;;8.60;;
37945;SDS011;23769;52.478;13.448;2023-10-13T03:49:14;15.98;;;9.48;;
37945;SDS011;23769;52.478;13.448;2023-10-13T03:51:46;16.20;;;9.95;;
37945;SDS011;23769;52.478;13.448;2023-10-13T03:54:14;15.73;;;9.10;;
37945;SDS011;23769;52.478;13.448;2023-10-13T03:56:44;16.27;;;9.55;;
37945;SDS011;23769;52.478;13.448;2023-10-13T03:59:12;15.38;;;9.05;;
37945;SDS011;23769;52.478;13.448;2023-10-13T04:01:46;16.58;;;10.25;;
37945;SDS011;23769;52.478;13.448;2023-10-13T04:04:23;16.45;;;9.63;;
37945;SDS011;23769;52.478;13.448;2023-10-13T04:06:59;15.45;;;10.15;;
37945;SDS011;23769;52.478;13.448;2023-10-13T04:09:59;17.60;;;9.90;;
37945;SDS011;23769;52.478;13.448;2023-10-13T04:13:00;22.10;;;11.43;;
37945;SDS011;23769;52.478;13.448;2023-10-13T04:15:51;18.17;;;10.63;;
37945;SDS011;23769;52.478;13.448;2023-10-13T04:18:59;17.85;;;11.23;;
37945;SDS011;23769;52.478;13.448;2023-10-13T04:21:34;20.30;;;12.63;;
37945;SDS011;23769;52.478;13.448;2023-10-13T04:24:20;20.77;;;12.43;;
37945;SDS011;23769;52.478;13.448;2023-10-13T04:27:04;22.02;;;13.35;;
37945;SDS011;23769;52.478;13.448;2023-10-13T04:29:50;20.52;;;13.20;;
37945;SDS011;23769;52.478;13.448;2023-10-13T04:32:35;19.73;;;13.00;;
37945;SDS011;23769;52.478;13.448;2023-10-13T04:35:04;18.95;;;12.50;;
37945;SDS011;23769;52.478;13.448;2023-10-13T04:37:44;21.88;;;14.65;;
37945;SDS011;23769;52.478;13.448;2023-10-13T04:40:17;19.30;;;14.02;;
37945;SDS011;23769;52.478;13.448;2023-10-13T04:42:44;23.17;;;14.68;;
37945;SDS011;23769;52.478;13.448;2023-10-13T04:45:20;19.20;;;13.95;;
37945;SDS011;23769;52.478;13.448;2023-10-13T04:48:12;19.27;;;13.95;;
37945;SDS011;23769;52.478;13.448;2023-10-13T04:50:43;21.05;;;13.98;;
37945;SDS011;23769;52.478;13.448;2023-10-13T04:53:12;22.77;;;15.25;;
37945;SDS011;23769;52.478;13.448;2023-10-13T04:55:58;19.45;;;14.27;;
37945;SDS011;23769;52.478;13.448;2023-10-13T04:58:34;25.75;;;16.80;;
37945;SDS011;23769;52.478;13.448;2023-10-13T05:01:19;25.25;;;15.73;;
37945;SDS011;23769;52.478;13.448;2023-10-13T05:04:04;21.90;;;15.00;;
37945;SDS011;23769;52.478;13.448;2023-10-13T05:06:55;20.30;;;14.57;;
37945;SDS011;23769;52.478;13.448;2023-10-13T05:09:40;19.77;;;13.38;;
37945;SDS011;23769;52.478;13.448;2023-10-13T05:12:25;17.92;;;13.02;;
37945;SDS011;23769;52.478;13.448;2023-10-13T05:15:10;20.38;;;12.68;;
37945;SDS011;23769;52.478;13.448;2023-10-13T05:17:56;20.42;;;13.18;;
37945;SDS011;23769;52.478;13.448;2023-10-13T05:20:43;17.63;;;13.52;;
37945;SDS011;23769;52.478;13.448;2023-10-13T05:23:28;17.98;;;12.43;;
37945;SDS011;23769;52.478;13.448;2023-10-13T05:26:13;21.55;;;12.95;;
37945;SDS011;23769;52.478;13.448;2023-10-13T05:28:58;19.55;;;13.35;;
37945;SDS011;23769;52.478;13.448;2023-10-13T05:31:43;17.23;;;13.23;;
37945;SDS011;23769;52.478;13.448;2023-10-13T05:34:30;16.45;;;11.32;;
37945;SDS011;23769;52.478;13.448;2023-10-13T05:37:15;15.43;;;11.85;;
37945;SDS011;23769;52.478;13.448;2023-10-13T05:40:01;16.27;;;11.95;;
37945;SDS011;23769;52.478;13.448;2023-10-13T05:42:46;18.63;;;13.57;;
37945;SDS011;23769;52.478;13.448;2023-10-13T05:45:31;18.17;;;12.15;;
37945;SDS011;23769;52.478;13.448;2023-10-13T05:48:26;19.70;;;11.98;;
37945;SDS011;23769;52.478;13.448;2023-10-13T05:51:18;17.75;;;12.10;;
37945;SDS011;23769;52.478;13.448;2023-10-13T05:54:12;15.77;;;11.18;;
37945;SDS011;23769;52.478;13.448;2023-10-13T05:56:57;18.13;;;11.07;;
37945;SDS011;23769;52.478;13.448;2023-10-13T05:59:45;28.10;;;14.55;;
37945;SDS011;23769;52.478;13.448;2023-10-13T06:02:29;17.13;;;11.27;;
37945;SDS011;23769;52.478;13.448;2023-10-13T06:05:14;19.63;;;12.85;;
37945;SDS011;23769;52.478;13.448;2023-10-13T06:08:00;17.77;;;11.90;;
37945;SDS011;23769;52.478;13.448;2023-10-13T06:10:47;17.98;;;11.60;;
37945;SDS011;23769;52.478;13.448;2023-10-13T06:13:32;20.73;;;11.43;;
37945;SDS011;23769;52.478;13.448;2023-10-13T06:16:17;20.20;;;12.00;;
37945;SDS011;23769;52.478;13.448;2023-10-13T06:19:02;19.45;;;13.48;;
37945;SDS011;23769;52.478;13.448;2023-10-13T06:21:46;17.27;;;11.23;;
37945;SDS011;23769;52.478;13.448;2023-10-13T06:24:33;15.30;;;10.70;;
37945;SDS011;23769;52.478;13.448;2023-10-13T06:27:18;17.73;;;11.07;;
37945;SDS011;23769;52.478;13.448;2023-10-13T06:30:03;14.40;;;9.95;;
37945;SDS011;23769;52.478;13.448;2023-10-13T06:32:30;15.93;;;11.25;;
37945;SDS011;23769;52.478;13.448;2023-10-13T06:34:58;16.77;;;10.20;;
37945;SDS011;23769;52.478;13.448;2023-10-13T06:37:30;13.80;;;9.73;;
37945;SDS011;23769;52.478;13.448;2023-10-13T06:40:01;18.00;;;10.75;;
37945;SDS011;23769;52.478;13.448;2023-10-13T06:42:31;14.82;;;10.88;;
37945;SDS011;23769;52.478;13.448;2023-10-13T06:44:59;11.77;;;9.68;;
37945;SDS011;23769;52.478;13.448;2023-10-13T06:47:33;15.88;;;10.80;;
37945;SDS011;23769;52.478;13.448;2023-10-13T06:50:05;14.50;;;9.65;;
37945;SDS011;23769;52.478;13.448;2023-10-13T06:52:40;16.15;;;10.88;;
37945;SDS011;23769;52.478;13.448;2023-10-13T06:55:09;16.25;;;11.40;;
37945;SDS011;23769;52.478;13.448;2023-10-13T06:57:42;20.88;;;13.93;;
37945;SDS011;23769;52.478;13.448;2023-10-13T07:00:09;17.42;;;12.95;;
37945;SDS011;23769;52.478;13.448;2023-10-13T07:02:44;21.92;;;12.63;;
37945;SDS011;23769;52.478;13.448;2023-10-13T07:05:12;22.25;;;13.10;;
37945;SDS011;23769;52.478;13.448;2023-10-13T07:07:40;16.02;;;11.23;;
37945;SDS011;23769;52.478;13.448;2023-10-13T07:10:11;14.82;;;10.18;;
37945;SDS011;23769;52.478;13.448;2023-10-13T07:12:38;18.15;;;11.27;;
37945;SDS011;23769;52.478;13.448;2023-10-13T07:15:08;12.48;;;8.80;;
37945;SDS011;23769;52.478;13.448;2023-10-13T07:17:44;10.82;;;7.07;;
37945;SDS011;23769;52.478;13.448;2023-10-13T07:20:12;15.10;;;9.55;;
37945;SDS011;23769;52.478;13.448;2023-10-13T07:22:48;12.60;;;8.05;;
37945;SDS011;23769;52.478;13.448;2023-10-13T07:25:24;13.18;;;8.15;;
37945;SDS011;23769;52.478;13.448;2023-10-13T07:27:51;12.07;;;8.23;;
37945;SDS011;23769;52.478;13.448;2023-10-13T07:30:22;11.48;;;7.70;;
37945;SDS011;23769;52.478;13.448;2023-10-13T07:32:52;13.38;;;7.13;;
37945;SDS011;23769;52.478;13.448;2023-10-13T07:35:23;11.63;;;7.35;;
37945;SDS011;23769;52.478;13.448;2023-10-13T07:37:52;13.40;;;7.60;;
37945;SDS011;23769;52.478;13.448;2023-10-13T07:40:20;13.65;;;7.85;;
37945;SDS011;23769;52.478;13.448;2023-10-13T07:43:06;11.93;;;6.95;;
37945;SDS011;23769;52.478;13.448;2023-10-13T07:45:36;11.20;;;6.50;;
37945;SDS011;23769;52.478;13.448;2023-10-13T07:48:06;8.63;;;6.47;;
37945;SDS011;23769;52.478;13.448;2023-10-13T07:50:38;10.82;;;6.63;;
37945;SDS011;23769;52.478;13.448;2023-10-13T07:53:05;11.20;;;7.25;;
37945;SDS011;23769;52.478;13.448;2023-10-13T07:55:47;10.73;;;6.30;;
37945;SDS011;23769;52.478;13.448;2023-10-13T07:58:21;11.68;;;6.40;;
37945;SDS011;23769;52.478;13.448;2023-10-13T08:00:50;9.23;;;6.15;;
37945;SDS011;23769;52.478;13.448;2023-10-13T08:03:31;8.60;;;5.93;;
37945;SDS011;23769;52.478;13.448;2023-10-13T08:06:09;8.35;;;5.45;;
37945;SDS011;23769;52.478;13.448;2023-10-13T08:08:45;13.40;;;5.65;;
37945;SDS011;23769;52.478;13.448;2023-10-13T08:11:18;13.52;;;6.63;;
37945;SDS011;23769;52.478;13.448;2023-10-13T08:13:58;9.35;;;5.60;;
37945;SDS011;23769;52.478;13.448;2023-10-13T08:16:28;9.60;;;6.13;;
37945;SDS011;23769;52.478;13.448;2023-10-13T08:19:10;10.48;;;5.65;;
37945;SDS011;23769;52.478;13.448;2023-10-13T08:21:40;7.85;;;5.30;;
37945;SDS011;23769;52.478;13.448;2023-10-13T08:24:14;9.13;;;5.80;;
37945;SDS011;23769;52.478;13.448;2023-10-13T08:26:41;6.72;;;4.95;;
37945;SDS011;23769;52.478;13.448;2023-10-13T08:29:24;10.23;;;5.90;;
37945;SDS011;23769;52.478;13.448;2023-10-13T08:32:11;8.88;;;5.90;;
37945;SDS011;23769;52.478;13.448;2023-10-13T08:34:48;8.38;;;5.35;;
37945;SDS011;23769;52.478;13.448;2023-10-13T08:37:33;9.57;;;5.25;;
37945;SDS011;23769;52.478;13.448;2023-10-13T08:40:11;10.82;;;5.43;;
37945;SDS011;23769;52.478;13.448;2023-10-13T08:43:02;14.05;;;8.48;;
37945;SDS011;23769;52.478;13.448;2023-10-13T08:45:38;7.72;;;4.95;;
37945;SDS011;23769;52.478;13.448;2023-10-13T08:48:24;10.82;;;6.38;;
37945;SDS011;23769;52.478;13.448;2023-10-13T08:50:56;8.95;;;5.70;;
37945;SDS011;23769;52.478;13.448;2023-10-13T08:53:30;11.00;;;5.97;;
37945;SDS011;23769;52.478;13.448;2023-10-13T08:55:58;10.63;;;4.78;;
37945;SDS011;23769;52.478;13.448;2023-10-13T08:58:31;8.55;;;5.22;;
37945;SDS011;23769;52.478;13.448;2023-10-13T09:01:17;8.10;;;4.78;;
37945;SDS011;23769;52.478;13.448;2023-10-13T09:03:58;11.77;;;5.18;;
37945;SDS011;23769;52.478;13.448;2023-10-13T09:06:46;7.60;;;5.13;;
37945;SDS011;23769;52.478;13.448;2023-10-13T09:09:17;9.40;;;4.57;;
37945;SDS011;23769;52.478;13.448;2023-10-13T09:11:59;11.35;;;5.80;;
37945;SDS011;23769;52.478;13.448;2023-10-13T09:14:34;8.23;;;5.50;;
37945;SDS011;23769;52.478;13.448;2023-10-13T09:17:05;10.25;;;5.65;;
37945;SDS011;23769;52.478;13.448;2023-10-13T09:19:47;7.45;;;5.05;;
37945;SDS011;23769;52.478;13.448;2023-10-13T09:22:21;10.57;;;5.00;;
37945;SDS011;23769;52.478;13.448;2023-10-13T09:24:51;8.05;;;5.22;;
37945;SDS011;23769;52.478;13.448;2023-10-13T09:27:18;10.07;;;6.07;;
37945;SDS011;23769;52.478;13.448;2023-10-13T09:29:54;9.02;;;4.95;;
37945;SDS011;23769;52.478;13.448;2023-10-13T09:32:21;8.90;;;5.80;;
37945;SDS011;23769;52.478;13.448;2023-10-13T09:34:49;8.90;;;5.15;;
37945;SDS011;23769;52.478;13.448;2023-10-13T09:37:16;11.50;;;5.35;;
37945;SDS011;23769;52.478;13.448;2023-10-13T09:39:47;10.68;;;5.68;;
37945;SDS011;23769;52.478;13.448;2023-10-13T09:42:17;9.70;;;6.03;;
37945;SDS011;23769;52.478;13.448;2023-10-13T09:44:48;10.15;;;5.57;;
37945;SDS011;23769;52.478;13.448;2023-10-13T09:47:25;9.98;;;6.30;;
37945;SDS011;23769;52.478;13.448;2023-10-13T09:50:02;6.35;;;5.00;;
37945;SDS011;23769;52.478;13.448;2023-10-13T09:52:30;8.82;;;5.57;;
37945;SDS011;23769;52.478;13.448;2023-10-13T09:55:05;9.70;;;5.68;;
37945;SDS011;23769;52.478;13.448;2023-10-13T09:57:37;10.52;;;6.70;;
37945;SDS011;23769;52.478;13.448;2023-10-13T10:00:10;10.38;;;5.20;;
37945;SDS011;23769;52.478;13.448;2023-10-13T10:03:11;8.90;;;6.15;;
37945;SDS011;23769;52.478;13.448;2023-10-13T10:05:58;10.27;;;5.82;;
37945;SDS011;23769;52.478;13.448;2023-10-13T10:08:31;10.38;;;6.05;;
37945;SDS011;23769;52.478;13.448;2023-10-13T10:13:43;7.82;;;5.93;;
37945;SDS011;23769;52.478;13.448;2023-10-13T10:16:18;12.65;;;7.82;;
37945;SDS011;23769;52.478;13.448;2023-10-13T10:18:58;8.68;;;6.13;;
37945;SDS011;23769;52.478;13.448;2023-10-13T10:21:32;8.23;;;5.38;;
37945;SDS011;23769;52.478;13.448;2023-10-13T10:24:00;8.93;;;6.30;;
37945;SDS011;23769;52.478;13.448;2023-10-13T10:26:38;6.95;;;5.35;;
37945;SDS011;23769;52.478;13.448;2023-10-13T10:29:10;8.23;;;5.88;;
37945;SDS011;23769;52.478;13.448;2023-10-13T10:31:40;8.45;;;5.93;;
37945;SDS011;23769;52.478;13.448;2023-10-13T10:34:13;10.65;;;5.55;;
37945;SDS011;23769;52.478;13.448;2023-10-13T10:39:11;8.57;;;5.15;;
37945;SDS011;23769;52.478;13.448;2023-10-13T10:41:39;7.43;;;4.95;;
37945;SDS011;23769;52.478;13.448;2023-10-13T10:44:10;6.22;;;4.53;;
37945;SDS011;23769;52.478;13.448;2023-10-13T10:46:48;7.13;;;4.90;;
37945;SDS011;23769;52.478;13.448;2023-10-13T10:49:23;6.80;;;4.68;;
37945;SDS011;23769;52.478;13.448;2023-10-13T10:54:23;11.18;;;5.80;;
37945;SDS011;23769;52.478;13.448;2023-10-13T10:56:55;9.10;;;5.05;;
37945;SDS011;23769;52.478;13.448;2023-10-13T10:59:33;7.63;;;5.30;;
37945;SDS011;23769;52.478;13.448;2023-10-13T11:02:02;10.55;;;5.43;;
37945;SDS011;23769;52.478;13.448;2023-10-13T11:04:33;10.70;;;5.63;;
37945;SDS011;23769;52.478;13.448;2023-10-13T11:07:05;7.78;;;5.35;;
37945;SDS011;23769;52.478;13.448;2023-10-13T11:09:33;8.15;;;5.30;;
37945;SDS011;23769;52.478;13.448;2023-10-13T11:12:09;10.02;;;6.50;;
37945;SDS011;23769;52.478;13.448;2023-10-13T11:14:58;8.20;;;5.10;;
37945;SDS011;23769;52.478;13.448;2023-10-13T11:17:26;9.73;;;5.65;;
37945;SDS011;23769;52.478;13.448;2023-10-13T11:22:59;8.75;;;6.30;;
37945;SDS011;23769;52.478;13.448;2023-10-13T11:25:30;13.13;;;5.97;;
37945;SDS011;23769;52.478;13.448;2023-10-13T11:28:09;10.63;;;5.82;;
37945;SDS011;23769;52.478;13.448;2023-10-13T11:30:42;8.02;;;5.30;;
37945;SDS011;23769;52.478;13.448;2023-10-13T11:33:15;14.77;;;5.75;;
37945;SDS011;23769;52.478;13.448;2023-10-13T11:35:44;9.02;;;5.53;;
37945;SDS011;23769;52.478;13.448;2023-10-13T11:38:29;12.98;;;6.32;;
37945;SDS011;23769;52.478;13.448;2023-10-13T11:41:15;9.85;;;5.60;;
37945;SDS011;23769;52.478;13.448;2023-10-13T11:43:44;8.48;;;5.00;;
37945;SDS011;23769;52.478;13.448;2023-10-13T11:46:48;9.32;;;5.07;;
37945;SDS011;23769;52.478;13.448;2023-10-13T11:51:59;11.48;;;5.93;;
37945;SDS011;23769;52.478;13.448;2023-10-13T11:54:50;7.07;;;4.20;;
37945;SDS011;23769;52.478;13.448;2023-10-13T11:57:18;11.15;;;6.25;;
37945;SDS011;23769;52.478;13.448;2023-10-13T11:59:46;13.75;;;7.30;;
37945;SDS011;23769;52.478;13.448;2023-10-13T12:02:21;6.30;;;4.65;;
37945;SDS011;23769;52.478;13.448;2023-10-13T12:05:06;10.48;;;5.55;;
37945;SDS011;23769;52.478;13.448;2023-10-13T12:07:42;10.50;;;4.95;;
37945;SDS011;23769;52.478;13.448;2023-10-13T12:10:16;8.05;;;5.13;;
37945;SDS011;23769;52.478;13.448;2023-10-13T12:13:01;8.82;;;4.63;;
37945;SDS011;23769;52.478;13.448;2023-10-13T12:15:38;10.18;;;5.05;;
37945;SDS011;23769;52.478;13.448;2023-10-13T12:18:17;11.95;;;5.32;;
37945;SDS011;23769;52.478;13.448;2023-10-13T12:20:48;9.43;;;4.88;;
37945;SDS011;23769;52.478;13.448;2023-10-13T12:23:16;13.50;;;5.80;;
37945;SDS011;23769;52.478;13.448;2023-10-13T12:25:50;10.13;;;5.32;;
37945;SDS011;23769;52.478;13.448;2023-10-13T12:28:23;12.98;;;5.97;;
37945;SDS011;23769;52.478;13.448;2023-10-13T12:30:52;8.80;;;4.97;;
37945;SDS011;23769;52.478;13.448;2023-10-13T12:33:28;8.48;;;5.45;;
37945;SDS011;23769;52.478;13.448;2023-10-13T12:36:02;13.70;;;5.63;;
37945;SDS011;23769;52.478;13.448;2023-10-13T12:38:32;8.93;;;4.80;;
37945;SDS011;23769;52.478;13.448;2023-10-13T12:41:38;10.75;;;5.15;;
37945;SDS011;23769;52.478;13.448;2023-10-13T12:44:23;10.80;;;5.43;;
37945;SDS011;23769;52.478;13.448;2023-10-13T12:47:09;10.88;;;5.38;;
37945;SDS011;23769;52.478;13.448;2023-10-13T12:49:54;13.77;;;5.88;;
37945;SDS011;23769;52.478;13.448;2023-10-13T12:52:25;8.82;;;4.72;;
37945;SDS011;23769;52.478;13.448;2023-10-13T12:54:57;8.02;;;4.30;;
37945;SDS011;23769;52.478;13.448;2023-10-13T12:57:36;8.65;;;4.30;;
37945;SDS011;23769;52.478;13.448;2023-10-13T13:00:10;11.50;;;5.22;;
37945;SDS011;23769;52.478;13.448;2023-10-13T13:02:49;11.85;;;4.75;;
37945;SDS011;23769;52.478;13.448;2023-10-13T13:05:20;10.73;;;5.55;;
37945;SDS011;23769;52.478;13.448;2023-10-13T13:07:53;9.60;;;6.10;;
37945;SDS011;23769;52.478;13.448;2023-10-13T13:10:21;10.57;;;5.30;;
37945;SDS011;23769;52.478;13.448;2023-10-13T13:13:01;11.00;;;6.20;;
37945;SDS011;23769;52.478;13.448;2023-10-13T13:15:29;8.30;;;5.47;;
37945;SDS011;23769;52.478;13.448;2023-10-13T13:17:56;10.52;;;4.97;;
37945;SDS011;23769;52.478;13.448;2023-10-13T13:20:35;11.18;;;5.15;;
37945;SDS011;23769;52.478;13.448;2023-10-13T13:23:04;10.20;;;5.53;;
37945;SDS011;23769;52.478;13.448;2023-10-13T13:25:31;10.90;;;5.95;;
37945;SDS011;23769;52.478;13.448;2023-10-13T13:27:59;11.10;;;4.80;;
37945;SDS011;23769;52.478;13.448;2023-10-13T13:30:32;8.35;;;4.57;;
37945;SDS011;23769;52.478;13.448;2023-10-13T13:33:02;10.50;;;4.80;;
37945;SDS011;23769;52.478;13.448;2023-10-13T13:35:36;11.93;;;5.40;;
37945;SDS011;23769;52.478;13.448;2023-10-13T13:38:03;13.45;;;5.05;;
37945;SDS011;23769;52.478;13.448;2023-10-13T13:40:36;11.10;;;4.53;;
37945;SDS011;23769;52.478;13.448;2023-10-13T13:43:03;13.23;;;5.05;;
37945;SDS011;23769;52.478;13.448;2023-10-13T13:45:33;14.77;;;5.50;;
37945;SDS011;23769;52.478;13.448;2023-10-13T13:48:06;8.57;;;4.65;;
37945;SDS011;23769;52.478;13.448;2023-10-13T13:50:40;12.07;;;4.35;;
37945;SDS011;23769;52.478;13.448;2023-10-13T13:53:10;9.82;;;5.13;;
37945;SDS011;23769;52.478;13.448;2023-10-13T13:55:39;14.13;;;5.53;;
37945;SDS011;23769;52.478;13.448;2023-10-13T13:58:06;11.05;;;6.00;;
37945;SDS011;23769;52.478;13.448;2023-10-13T14:00:39;11.88;;;5.35;;
37945;SDS011;23769;52.478;13.448;2023-10-13T14:03:13;10.70;;;4.80;;
37945;SDS011;23769;52.478;13.448;2023-10-13T14:05:56;9.73;;;4.78;;
37945;SDS011;23769;52.478;13.448;2023-10-13T14:08:24;12.38;;;4.82;;
37945;SDS011;23769;52.478;13.448;2023-10-13T14:10:52;10.52;;;4.80;;
37945;SDS011;23769;52.478;13.448;2023-10-13T14:13:37;9.52;;;4.80;;
37945;SDS011;23769;52.478;13.448;2023-10-13T14:16:15;8.32;;;4.82;;
37945;SDS011;23769;52.478;13.448;2023-10-13T14:18:43;9.68;;;4.55;;
37945;SDS011;23769;52.478;13.448;2023-10-13T14:21:11;12.30;;;5.75;;
37945;SDS011;23769;52.478;13.448;2023-10-13T14:23:42;12.10;;;5.63;;
37945;SDS011;23769;52.478;13.448;2023-10-13T14:26:11;12.77;;;5.28;;
37945;SDS011;23769;52.478;13.448;2023-10-13T14:28:38;14.05;;;4.85;;
37945;SDS011;23769;52.478;13.448;2023-10-13T14:31:17;11.18;;;4.70;;
37945;SDS011;23769;52.478;13.448;2023-10-13T14:33:45;12.20;;;5.70;;
37945;SDS011;23769;52.478;13.448;2023-10-13T14:36:12;12.50;;;5.53;;
37945;SDS011;23769;52.478;13.448;2023-10-13T14:38:45;12.60;;;6.30;;
37945;SDS011;23769;52.478;13.448;2023-10-13T14:41:14;9.82;;;4.75;;
37945;SDS011;23769;52.478;13.448;2023-10-13T14:43:42;11.85;;;5.10;;
37945;SDS011;23769;52.478;13.448;2023-10-13T14:46:13;14.00;;;5.25;;
37945;SDS011;23769;52.478;13.448;2023-10-13T14:48:42;10.48;;;5.00;;
37945;SDS011;23769;52.478;13.448;2023-10-13T14:51:09;13.13;;;5.55;;
37945;SDS011;23769;52.478;13.448;2023-10-13T14:53:38;11.98;;;5.75;;
37945;SDS011;23769;52.478;13.448;2023-10-13T14:56:09;8.25;;;4.47;;
37945;SDS011;23769;52.478;13.448;2023-10-13T14:58:36;11.23;;;6.18;;
37945;SDS011;23769;52.478;13.448;2023-10-13T15:01:10;12.10;;;5.47;;
37945;SDS011;23769;52.478;13.448;2023-10-13T15:03:41;17.08;;;5.15;;
37945;SDS011;23769;52.478;13.448;2023-10-13T15:06:14;11.60;;;4.78;;
37945;SDS011;23769;52.478;13.448;2023-10-13T15:08:42;11.63;;;5.68;;
37945;SDS011;23769;52.478;13.448;2023-10-13T15:11:11;14.35;;;5.15;;
37945;SDS011;23769;52.478;13.448;2023-10-13T15:13:39;11.32;;;5.40;;
37945;SDS011;23769;52.478;13.448;2023-10-13T15:16:13;12.80;;;6.47;;
37945;SDS011;23769;52.478;13.448;2023-10-13T15:18:43;11.10;;;5.70;;
37945;SDS011;23769;52.478;13.448;2023-10-13T15:21:11;9.32;;;5.70;;
37945;SDS011;23769;52.478;13.448;2023-10-13T15:23:39;11.50;;;6.68;;
37945;SDS011;23769;52.478;13.448;2023-10-13T15:26:08;11.77;;;5.90;;